createdAt,value
2019-01-14T00:01:52.698Z,82.00
2019-01-14T00:04:21.865Z,84.26
2019-01-14T00:06:50.928Z,83.50
2019-01-14T00:09:23.427Z,83.62
2019-01-14T00:11:51.114Z,84.01
2019-01-14T00:14:20.190Z,83.77
2019-01-14T00:16:49.381Z,84.46
2019-01-14T00:19:18.507Z,83.52
2019-01-14T00:21:47.629Z,83.23
2019-01-14T00:24:16.702Z,83.13
2019-01-14T00:26:45.760Z,83.29
2019-01-14T00:29:14.786Z,84.62
2019-01-14T00:31:43.829Z,83.30
2019-01-14T00:34:13.194Z,84.17
2019-01-14T00:36:42.328Z,84.73
2019-01-14T00:39:11.394Z,84.52
2019-01-14T00:41:40.487Z,83.43
2019-01-14T00:44:09.618Z,83.55
2019-01-14T00:46:38.645Z,83.79
2019-01-14T00:49:07.943Z,83.54
2019-01-14T00:51:37.175Z,83.22
2019-01-14T00:54:08.071Z,84.14
2019-01-14T00:56:37.140Z,84.67
2019-01-14T00:59:06.121Z,84.18
2019-01-14T01:01:35.334Z,84.37
2019-01-14T01:04:04.445Z,84.94
2019-01-14T01:06:33.630Z,84.76
2019-01-14T01:09:03.022Z,84.50
2019-01-14T01:11:32.142Z,85.28
2019-01-14T01:14:01.183Z,85.01
2019-01-14T01:16:32.670Z,84.60
2019-01-14T01:19:02.047Z,84.93
2019-01-14T01:21:31.252Z,86.11
2019-01-14T01:24:00.340Z,85.96
2019-01-14T01:26:30.139Z,86.66
2019-01-14T01:28:59.235Z,87.81
2019-01-14T01:31:28.615Z,88.40
2019-01-14T01:33:59.378Z,88.71
2019-01-14T01:36:31.932Z,88.99
2019-01-14T01:38:59.436Z,88.75
2019-01-14T01:41:28.704Z,89.62
2019-01-14T01:43:58.218Z,89.89
2019-01-14T01:46:27.267Z,90.10
2019-01-14T01:48:56.342Z,90.59
2019-01-14T01:51:25.386Z,92.04
2019-01-14T01:53:54.407Z,93.67
2019-01-14T01:56:23.479Z,94.88
2019-01-14T01:58:52.533Z,94.11
2019-01-14T02:01:22.695Z,93.91
2019-01-14T02:03:51.729Z,94.31
2019-01-14T02:06:21.120Z,94.44
2019-01-14T02:08:54.393Z,93.81
2019-01-14T02:11:25.769Z,94.43
2019-01-14T02:13:56.309Z,94.77
2019-01-14T02:16:25.330Z,94.26
2019-01-14T02:18:55.568Z,95.31
2019-01-14T02:21:24.623Z,95.55
2019-01-14T02:23:53.678Z,95.62
2019-01-14T02:26:22.715Z,95.92
2019-01-14T02:28:51.783Z,95.60
2019-01-14T02:31:20.873Z,96.15
2019-01-14T02:33:50.034Z,96.60
2019-01-14T02:36:19.072Z,97.04
2019-01-14T02:38:48.282Z,96.54
2019-01-14T02:41:17.401Z,94.07
2019-01-14T02:43:46.448Z,94.20
2019-01-14T02:46:15.518Z,93.24
2019-01-14T02:48:46.475Z,92.41
2019-01-14T02:51:16.640Z,92.83
2019-01-14T02:53:45.721Z,92.82
2019-01-14T02:56:14.700Z,92.76
2019-01-14T02:58:43.797Z,92.81
2019-01-14T03:01:12.818Z,92.49
2019-01-14T03:03:41.869Z,93.96
2019-01-14T03:06:10.946Z,94.74
2019-01-14T03:08:40.060Z,92.09
2019-01-14T03:11:09.273Z,91.16
2019-01-14T03:13:38.366Z,92.32
2019-01-14T03:16:07.576Z,92.09
2019-01-14T03:18:37.337Z,90.78
2019-01-14T03:21:06.398Z,89.11
2019-01-14T03:23:35.502Z,88.86
2019-01-14T03:26:04.546Z,87.90
2019-01-14T03:28:33.607Z,87.88
2019-01-14T03:31:02.692Z,87.14
2019-01-14T03:33:35.825Z,87.67
2019-01-14T03:36:04.961Z,87.49
2019-01-14T03:38:34.022Z,85.61
2019-01-14T03:41:03.158Z,85.75
2019-01-14T03:43:33.479Z,86.44
2019-01-14T03:46:02.677Z,85.47
2019-01-14T03:48:31.752Z,84.42
2019-01-14T03:51:00.837Z,84.62
2019-01-14T03:53:29.924Z,84.78
2019-01-14T03:55:58.981Z,84.01
2019-01-14T03:58:28.014Z,84.61
2019-01-14T04:00:57.117Z,84.72
2019-01-14T04:03:26.143Z,85.36
2019-01-14T04:05:55.460Z,85.30
2019-01-14T04:08:24.518Z,85.67
2019-01-14T04:10:53.583Z,86.13
2019-01-14T04:13:22.852Z,85.80
2019-01-14T04:15:51.938Z,86.87
2019-01-14T04:18:21.051Z,85.62
2019-01-14T04:20:50.080Z,84.41
2019-01-14T04:23:19.165Z,84.75
2019-01-14T04:25:50.671Z,84.89
2019-01-14T04:28:19.734Z,84.15
2019-01-14T04:30:48.776Z,84.61
2019-01-14T04:33:17.860Z,84.62
2019-01-14T04:35:46.886Z,84.84
2019-01-14T04:38:15.974Z,84.30
2019-01-14T04:40:45.007Z,83.46
2019-01-14T04:43:14.112Z,84.70
2019-01-14T04:45:43.171Z,85.51
2019-01-14T04:48:12.171Z,85.45
2019-01-14T04:50:41.161Z,85.24
2019-01-14T04:53:10.300Z,84.47
2019-01-14T04:55:39.325Z,83.82
2019-01-14T04:58:08.517Z,83.82
2019-01-14T05:00:37.486Z,83.86
2019-01-14T05:03:06.547Z,83.68
2019-01-14T05:05:35.591Z,82.71
2019-01-14T05:08:04.693Z,83.25
2019-01-14T05:10:33.826Z,83.47
2019-01-14T05:13:02.917Z,84.57
2019-01-14T05:15:31.979Z,84.14
2019-01-14T05:18:01.093Z,83.52
2019-01-14T05:20:30.149Z,84.20
2019-01-14T05:22:59.187Z,84.56
2019-01-14T05:25:28.256Z,84.08
2019-01-14T05:27:57.245Z,84.57
2019-01-14T05:30:26.319Z,85.14
2019-01-14T05:32:55.410Z,85.92
2019-01-14T05:35:24.482Z,85.75
2019-01-14T05:37:53.532Z,85.99
2019-01-14T05:40:24.751Z,85.95
2019-01-14T05:42:53.798Z,86.36
2019-01-14T05:45:22.845Z,86.70
2019-01-14T05:47:51.853Z,86.18
2019-01-14T05:50:20.951Z,85.76
2019-01-14T05:52:50.044Z,86.26
2019-01-14T05:55:19.059Z,85.95
2019-01-14T05:57:49.072Z,86.45
2019-01-14T06:00:24.088Z,86.04
2019-01-14T06:02:54.389Z,86.47
2019-01-14T06:05:23.461Z,86.96
2019-01-14T06:07:52.500Z,87.66
2019-01-14T06:10:21.535Z,87.99
2019-01-14T06:12:53.251Z,87.75
2019-01-14T06:15:22.630Z,87.37
2019-01-14T06:17:54.058Z,87.51
2019-01-14T06:20:25.016Z,88.39
2019-01-14T06:22:55.531Z,88.10
2019-01-14T06:25:24.625Z,88.07
2019-01-14T06:27:53.610Z,88.92
2019-01-14T06:30:24.817Z,88.75
2019-01-14T06:32:53.844Z,89.06
2019-01-14T06:35:23.984Z,89.32
2019-01-14T06:37:53.030Z,88.77
2019-01-14T06:40:22.132Z,89.31
2019-01-14T06:42:53.840Z,89.15
2019-01-14T06:45:23.995Z,89.63
2019-01-14T06:47:52.980Z,89.38
2019-01-14T06:50:25.166Z,89.48
2019-01-14T06:52:54.677Z,90.43
2019-01-14T06:55:23.734Z,90.84
2019-01-14T06:57:52.758Z,90.75
2019-01-14T07:00:26.545Z,91.18
2019-01-14T07:02:55.617Z,90.85
2019-01-14T07:05:24.738Z,91.54
2019-01-14T07:07:59.509Z,91.98
2019-01-14T07:10:29.855Z,91.60
2019-01-14T07:12:58.952Z,91.05
2019-01-14T07:15:28.078Z,91.33
2019-01-14T07:17:57.173Z,90.33
2019-01-14T07:20:26.248Z,89.71
2019-01-14T07:22:55.304Z,89.68
2019-01-14T07:25:24.282Z,90.49
2019-01-14T07:27:53.359Z,89.76
2019-01-14T07:30:22.716Z,90.53
2019-01-14T07:32:51.778Z,90.57
2019-01-14T07:35:20.824Z,90.44
2019-01-14T07:37:50.073Z,90.82
2019-01-14T07:40:19.423Z,90.75
2019-01-14T07:42:48.602Z,91.27
2019-01-14T07:45:18.531Z,91.32
2019-01-14T07:47:47.610Z,91.23
2019-01-14T07:50:17.339Z,91.53
2019-01-14T07:52:46.456Z,91.36
2019-01-14T07:55:15.575Z,90.97
2019-01-14T07:57:44.665Z,90.71
2019-01-14T08:00:23.293Z,90.12
2019-01-14T08:02:52.456Z,89.36
2019-01-14T08:05:21.435Z,89.45
2019-01-14T08:07:50.644Z,89.08
2019-01-14T08:10:19.654Z,88.91
2019-01-14T08:12:50.606Z,88.47
2019-01-14T08:15:21.261Z,88.20
2019-01-14T08:17:50.422Z,86.58
2019-01-14T08:20:19.502Z,86.37
2019-01-14T08:22:48.718Z,87.38
2019-01-14T08:25:17.756Z,87.73
2019-01-14T08:27:51.579Z,87.54
2019-01-14T08:30:25.209Z,87.30
2019-01-14T08:32:56.613Z,85.91
2019-01-14T08:35:25.688Z,84.66
2019-01-14T08:37:54.792Z,84.26
2019-01-14T08:40:25.157Z,82.88
2019-01-14T08:42:54.287Z,82.46
2019-01-14T08:45:23.358Z,80.76
2019-01-14T08:47:52.431Z,81.31
2019-01-14T08:50:21.960Z,81.32
2019-01-14T08:52:51.848Z,80.75
2019-01-14T08:55:21.405Z,81.91
2019-01-14T08:57:54.751Z,81.99
2019-01-14T09:00:27.018Z,82.67
2019-01-14T09:02:56.076Z,83.28
2019-01-14T09:05:25.158Z,84.19
2019-01-14T09:07:54.238Z,83.70
2019-01-14T09:10:26.926Z,83.90
2019-01-14T09:12:56.038Z,82.79
2019-01-14T09:15:25.123Z,82.45
2019-01-14T09:18:02.667Z,83.26
2019-01-14T09:20:30.583Z,82.34
2019-01-14T09:23:00.080Z,82.30
2019-01-14T09:25:29.181Z,81.84
2019-01-14T09:27:58.462Z,81.88
2019-01-14T09:30:32.759Z,82.53
2019-01-14T09:33:01.752Z,82.88
2019-01-14T09:35:30.922Z,82.87
2019-01-14T09:38:00.066Z,82.41
2019-01-14T09:40:30.748Z,82.21
2019-01-14T09:42:59.835Z,82.34
2019-01-14T09:45:31.046Z,81.55
2019-01-14T09:48:00.104Z,79.83
2019-01-14T09:50:29.511Z,79.28
2019-01-14T09:52:58.714Z,79.71
2019-01-14T09:55:27.828Z,79.77
2019-01-14T09:57:56.891Z,78.60
2019-01-14T10:00:28.278Z,80.19
2019-01-14T10:02:58.187Z,80.90
2019-01-14T10:05:28.266Z,79.92
2019-01-14T10:07:57.565Z,79.79
2019-01-14T10:10:28.090Z,80.56
2019-01-14T10:12:57.199Z,80.69
2019-01-14T10:15:28.014Z,80.75
2019-01-14T10:18:02.434Z,81.16
2019-01-14T10:20:32.719Z,80.97
2019-01-14T10:23:01.814Z,81.52
2019-01-14T10:25:31.230Z,81.81
2019-01-14T10:28:00.539Z,82.30
2019-01-14T10:30:33.452Z,81.62
2019-01-14T10:33:02.608Z,81.30
2019-01-14T10:35:31.855Z,81.54
2019-01-14T10:38:04.316Z,81.33
2019-01-14T10:40:34.607Z,83.03
2019-01-14T10:43:03.780Z,83.85
2019-01-14T10:45:33.217Z,85.90
2019-01-14T10:48:02.286Z,86.35
2019-01-14T10:50:33.399Z,86.22
2019-01-14T10:53:03.611Z,85.36
2019-01-14T10:55:34.991Z,86.07
2019-01-14T10:58:07.614Z,86.05
2019-01-14T11:00:41.860Z,87.18
2019-01-14T11:03:13.354Z,87.06
2019-01-14T11:05:42.409Z,85.80
2019-01-14T11:08:11.528Z,85.67
2019-01-14T11:10:41.988Z,85.24
2019-01-14T11:13:13.108Z,85.05
2019-01-14T11:15:42.192Z,84.74
2019-01-14T11:18:11.314Z,85.32
2019-01-14T11:20:42.153Z,84.80
2019-01-14T11:23:11.335Z,84.40
2019-01-14T11:25:40.319Z,83.58
2019-01-14T11:28:09.590Z,82.03
2019-01-14T11:30:38.630Z,82.56
2019-01-14T11:33:07.735Z,82.18
2019-01-14T11:35:38.390Z,81.09
2019-01-14T11:38:09.129Z,81.02
2019-01-14T11:40:44.468Z,81.90
2019-01-14T11:43:13.661Z,81.77
2019-01-14T11:45:43.734Z,81.63
2019-01-14T11:48:12.832Z,81.83
2019-01-14T11:50:42.864Z,80.82
2019-01-14T11:53:12.016Z,80.82
2019-01-14T11:55:41.262Z,80.19
2019-01-14T11:58:10.439Z,79.36
2019-01-14T12:00:41.312Z,79.08
2019-01-14T12:03:12.463Z,77.56
2019-01-14T12:05:41.543Z,77.56
2019-01-14T12:08:11.683Z,78.87
2019-01-14T12:10:42.164Z,77.72
2019-01-14T12:13:11.387Z,78.79
2019-01-14T12:15:41.329Z,79.91
2019-01-14T12:18:10.467Z,79.88
2019-01-14T12:20:39.567Z,79.88
2019-01-14T12:23:08.654Z,81.90
2019-01-14T12:25:39.210Z,85.78
2019-01-14T12:28:08.293Z,92.12
2019-01-14T12:30:38.756Z,94.42
2019-01-14T12:33:07.794Z,94.89
2019-01-14T12:35:36.879Z,94.91
2019-01-14T12:38:06.479Z,93.46
2019-01-14T12:40:35.550Z,94.68
2019-01-14T12:43:06.833Z,92.98
2019-01-14T12:45:36.016Z,92.75
2019-01-14T12:48:05.059Z,92.21
2019-01-14T12:50:34.125Z,91.82
2019-01-14T12:53:03.199Z,91.05
2019-01-14T12:55:32.281Z,91.21
2019-01-14T12:58:01.313Z,91.43
2019-01-14T13:00:31.054Z,89.45
2019-01-14T13:03:00.089Z,89.06
2019-01-14T13:05:31.205Z,88.36
2019-01-14T13:08:00.257Z,88.80
2019-01-14T13:10:29.368Z,89.64
2019-01-14T13:12:58.527Z,89.36
2019-01-14T13:15:28.543Z,88.47
2019-01-14T13:17:57.601Z,89.62
2019-01-14T13:20:26.703Z,90.43
2019-01-14T13:22:55.949Z,87.87
2019-01-14T13:25:25.126Z,88.22
2019-01-14T13:27:54.211Z,87.49
2019-01-14T13:30:25.406Z,87.34
2019-01-14T13:32:54.463Z,87.04
2019-01-14T13:35:23.539Z,86.39
2019-01-14T13:37:52.739Z,86.31
2019-01-14T13:40:21.749Z,84.43
2019-01-14T13:42:50.727Z,83.91
2019-01-14T13:45:20.629Z,83.75
2019-01-14T13:47:49.689Z,83.26
2019-01-14T13:50:21.141Z,82.97
2019-01-14T13:52:50.218Z,82.92
2019-01-14T13:55:19.269Z,82.70
2019-01-14T13:57:48.277Z,83.57
2019-01-14T14:00:19.437Z,83.64
2019-01-14T14:02:48.521Z,83.13
2019-01-14T14:05:17.645Z,82.07
2019-01-14T14:07:46.648Z,82.66
2019-01-14T14:10:21.022Z,81.20
2019-01-14T14:12:50.212Z,82.25
2019-01-14T14:15:19.692Z,79.18
2019-01-14T14:17:48.812Z,80.17
2019-01-14T14:20:18.903Z,80.77
2019-01-14T14:22:48.026Z,79.28
2019-01-14T14:25:18.877Z,78.85
2019-01-14T14:27:48.238Z,77.94
2019-01-14T14:30:43.479Z,78.66
2019-01-14T14:33:13.434Z,76.50
2019-01-14T14:35:43.094Z,76.43
2019-01-14T14:38:12.522Z,76.39
2019-01-14T14:40:43.352Z,77.54
2019-01-14T14:43:13.014Z,76.58
2019-01-14T14:45:42.475Z,76.29
2019-01-14T14:48:11.914Z,74.56
2019-01-14T14:50:41.381Z,75.61
2019-01-14T14:53:12.281Z,74.55
2019-01-14T14:55:41.877Z,73.56
2019-01-14T14:58:12.996Z,74.04
2019-01-14T15:00:45.404Z,75.10
2019-01-14T15:03:14.790Z,75.09
2019-01-14T15:05:44.002Z,75.60
2019-01-14T15:08:15.701Z,76.76
2019-01-14T15:10:47.916Z,76.62
2019-01-14T15:13:17.010Z,76.03
2019-01-14T15:15:46.352Z,75.94
2019-01-14T15:18:17.687Z,75.55
2019-01-14T15:20:48.722Z,74.70
2019-01-14T15:23:17.772Z,75.51
2019-01-14T15:25:46.908Z,74.92
2019-01-14T15:28:16.126Z,75.64
2019-01-14T15:30:45.266Z,75.28
2019-01-14T15:33:14.560Z,75.41
2019-01-14T15:35:43.906Z,74.99
2019-01-14T15:38:13.027Z,74.93
2019-01-14T15:40:42.400Z,75.66
2019-01-14T15:43:11.461Z,74.49
2019-01-14T15:45:40.429Z,76.20
2019-01-14T15:48:09.560Z,76.17
2019-01-14T15:50:38.674Z,75.56
2019-01-14T15:53:07.740Z,76.67
2019-01-14T15:55:39.231Z,76.94
2019-01-14T15:58:09.165Z,76.65
2019-01-14T16:00:38.250Z,77.60
2019-01-14T16:03:09.419Z,77.09
2019-01-14T16:05:38.668Z,77.92
2019-01-14T16:08:12.327Z,77.69
2019-01-14T16:10:42.504Z,79.05
2019-01-14T16:13:11.606Z,82.35
2019-01-14T16:15:41.736Z,82.03
2019-01-14T16:18:10.934Z,83.44
2019-01-14T16:20:39.981Z,85.26
2019-01-14T16:23:11.133Z,85.60
2019-01-14T16:25:40.195Z,86.95
2019-01-14T16:28:09.311Z,86.47
2019-01-14T16:30:38.408Z,88.41
2019-01-14T16:33:07.474Z,88.83
2019-01-14T16:35:36.557Z,88.36
2019-01-14T16:38:05.716Z,88.57
2019-01-14T16:40:35.502Z,88.44
2019-01-14T16:43:04.655Z,90.27
2019-01-14T16:45:33.747Z,90.29
2019-01-14T16:48:02.806Z,89.82
2019-01-14T16:50:34.522Z,89.26
2019-01-14T16:53:05.904Z,89.08
2019-01-14T16:55:42.716Z,86.96
2019-01-14T16:58:11.834Z,86.57
2019-01-14T17:00:42.025Z,86.56
2019-01-14T17:03:11.123Z,87.07
2019-01-14T17:05:40.202Z,86.66
2019-01-14T17:08:09.222Z,86.13
2019-01-14T17:10:38.278Z,85.97
2019-01-14T17:13:07.340Z,85.86
2019-01-14T17:15:36.478Z,85.95
2019-01-14T17:18:05.591Z,85.29
2019-01-14T17:20:34.714Z,85.11
2019-01-14T17:23:03.773Z,84.62
2019-01-14T17:25:33.952Z,84.22
2019-01-14T17:28:03.051Z,84.99
2019-01-14T17:30:32.186Z,84.62
2019-01-14T17:33:01.212Z,85.60
2019-01-14T17:35:30.562Z,85.01
2019-01-14T17:37:59.686Z,85.62
2019-01-14T17:40:32.732Z,85.33
2019-01-14T17:42:59.534Z,87.48
2019-01-14T17:45:28.621Z,87.06
2019-01-14T17:47:57.637Z,87.41
2019-01-14T17:50:26.682Z,88.15
2019-01-14T17:52:55.720Z,88.34
2019-01-14T17:55:24.890Z,89.41
2019-01-14T17:57:54.458Z,89.69
2019-01-14T18:00:26.862Z,89.79
2019-01-14T18:02:55.886Z,91.51
2019-01-14T18:05:24.983Z,91.66
2019-01-14T18:07:54.163Z,91.22
2019-01-14T18:10:23.275Z,88.95
2019-01-14T18:12:52.321Z,87.25
2019-01-14T18:15:21.536Z,84.02
2019-01-14T18:17:50.611Z,83.91
2019-01-14T18:20:20.622Z,86.13
2019-01-14T18:22:49.649Z,85.81
2019-01-14T18:25:18.766Z,85.25
2019-01-14T18:27:47.768Z,86.18
2019-01-14T18:30:18.550Z,84.77
2019-01-14T18:32:47.617Z,85.42
2019-01-14T18:35:17.178Z,84.37
2019-01-14T18:37:46.327Z,81.60
2019-01-14T18:40:16.377Z,82.71
2019-01-14T18:42:45.661Z,81.03
2019-01-14T18:45:15.732Z,81.90
2019-01-14T18:47:44.820Z,80.70
2019-01-14T18:50:21.216Z,79.69
2019-01-14T18:52:50.320Z,79.40
2019-01-14T18:55:19.352Z,77.52
2019-01-14T18:57:48.645Z,78.07
2019-01-14T19:00:19.482Z,77.13
2019-01-14T19:02:48.563Z,77.87
2019-01-14T19:05:20.164Z,78.31
2019-01-14T19:07:49.715Z,78.43
2019-01-14T19:10:18.857Z,79.01
2019-01-14T19:12:47.967Z,78.49
2019-01-14T19:15:18.746Z,77.69
2019-01-14T19:17:47.986Z,76.83
2019-01-14T19:20:22.519Z,77.11
2019-01-14T19:22:52.972Z,77.88
2019-01-14T19:25:24.273Z,76.63
2019-01-14T19:27:53.356Z,76.40
2019-01-14T19:30:22.558Z,76.98
2019-01-14T19:32:53.703Z,76.80
2019-01-14T19:35:22.776Z,76.21
2019-01-14T19:37:51.895Z,75.27
2019-01-14T19:40:21.287Z,75.92
2019-01-14T19:42:50.458Z,75.26
2019-01-14T19:45:20.432Z,76.38
2019-01-14T19:47:49.594Z,75.27
2019-01-14T19:50:23.234Z,76.39
2019-01-14T19:52:52.656Z,75.83
2019-01-14T19:55:21.791Z,76.25
2019-01-14T19:57:50.958Z,75.97
2019-01-14T20:00:22.791Z,76.76
2019-01-14T20:02:51.925Z,76.27
2019-01-14T20:05:21.031Z,76.52
2019-01-14T20:07:52.856Z,76.07
2019-01-14T20:10:21.978Z,76.87
2019-01-14T20:12:51.173Z,77.78
2019-01-14T20:15:20.695Z,76.72
2019-01-14T20:17:49.836Z,76.83
2019-01-14T20:20:18.987Z,78.09
2019-01-14T20:22:48.640Z,78.23
2019-01-14T20:25:17.733Z,79.11
2019-01-14T20:27:46.782Z,79.92
2019-01-14T20:30:20.670Z,79.71
2019-01-14T20:32:53.744Z,79.38
2019-01-14T20:35:22.799Z,80.00
2019-01-14T20:37:51.869Z,80.32
2019-01-14T20:40:21.240Z,81.14
2019-01-14T20:42:51.825Z,81.36
2019-01-14T20:45:20.919Z,82.77
2019-01-14T20:47:50.073Z,80.90
2019-01-14T20:50:20.322Z,80.84
2019-01-14T20:52:49.387Z,80.63
2019-01-14T20:55:18.508Z,82.34
2019-01-14T20:57:47.608Z,82.38
2019-01-14T21:00:19.084Z,82.14
2019-01-14T21:02:48.160Z,80.83
2019-01-14T21:05:18.023Z,81.44
2019-01-14T21:07:47.055Z,80.67
2019-01-14T21:10:21.543Z,81.24
2019-01-14T21:12:53.336Z,81.30
2019-01-14T21:15:24.814Z,81.59
2019-01-14T21:17:53.909Z,81.30
2019-01-14T21:20:24.594Z,81.02
2019-01-14T21:22:55.670Z,80.49
2019-01-14T21:25:24.942Z,82.75
2019-01-14T21:27:58.818Z,83.69
2019-01-14T21:30:28.260Z,84.06
2019-01-14T21:32:58.578Z,85.07
2019-01-14T21:35:27.740Z,83.97
2019-01-14T21:37:58.612Z,84.57
2019-01-14T21:40:27.966Z,85.07
2019-01-14T21:42:57.023Z,84.34
2019-01-14T21:45:28.406Z,83.93
2019-01-14T21:47:57.513Z,84.53
2019-01-14T21:50:26.534Z,84.62
2019-01-14T21:52:55.594Z,84.60
2019-01-14T21:55:26.170Z,83.94
2019-01-14T21:57:55.315Z,82.80
2019-01-14T22:00:27.375Z,82.72
2019-01-14T22:02:56.476Z,82.78
2019-01-14T22:05:25.637Z,82.98
2019-01-14T22:07:54.861Z,81.19
2019-01-14T22:10:29.523Z,80.52
2019-01-14T22:13:01.683Z,81.74
2019-01-14T22:15:30.763Z,81.31
2019-01-14T22:17:59.923Z,81.93
2019-01-14T22:20:29.962Z,82.66
2019-01-14T22:23:00.146Z,83.33
2019-01-14T22:25:29.161Z,84.27
2019-01-14T22:27:58.200Z,84.54
2019-01-14T22:30:29.880Z,84.81
2019-01-14T22:32:58.992Z,84.36
2019-01-14T22:35:28.140Z,85.22
2019-01-14T22:37:57.196Z,85.12
2019-01-14T22:40:26.354Z,84.33
2019-01-14T22:42:55.450Z,84.52
2019-01-14T22:45:24.466Z,84.46
2019-01-14T22:47:53.839Z,84.14
2019-01-14T22:50:24.009Z,83.09
2019-01-14T22:52:53.105Z,82.50
2019-01-14T22:55:22.151Z,83.53
2019-01-14T22:57:51.369Z,84.16
2019-01-14T23:00:57.772Z,84.49
2019-01-14T23:03:26.891Z,84.23
2019-01-14T23:06:00.154Z,84.02
2019-01-14T23:08:29.278Z,83.31
2019-01-14T23:10:58.316Z,84.20
2019-01-14T23:13:27.334Z,84.54
2019-01-14T23:15:56.419Z,83.25
2019-01-14T23:18:25.549Z,83.86
2019-01-14T23:20:54.706Z,83.45
2019-01-14T23:23:23.808Z,83.22
2019-01-14T23:25:52.855Z,82.42
2019-01-14T23:28:23.783Z,82.31
2019-01-14T23:30:52.838Z,81.88
2019-01-14T23:33:21.964Z,82.24
2019-01-14T23:35:51.203Z,82.71
2019-01-14T23:38:20.275Z,82.49
2019-01-14T23:40:51.497Z,82.38
2019-01-14T23:43:20.570Z,82.47
2019-01-14T23:45:49.839Z,83.29
2019-01-14T23:48:19.015Z,82.42
2019-01-14T23:50:51.436Z,82.75
2019-01-14T23:53:20.503Z,83.34
2019-01-14T23:55:49.590Z,83.54
2019-01-14T23:58:18.655Z,83.92
